createdAt,value
2023-05-18T00:02:05.843Z,6.06
2023-05-18T00:04:37.395Z,6.47
2023-05-18T00:04:50.299Z,6.47
2023-05-18T00:07:05.039Z,6.54
2023-05-18T00:09:35.547Z,6.35
2023-05-18T00:09:50.245Z,6.35
2023-05-18T00:12:03.810Z,6.45
2023-05-18T00:14:31.011Z,6.12
2023-05-18T00:14:50.188Z,6.12
2023-05-18T00:16:58.003Z,6.45
2023-05-18T00:19:25.183Z,6.42
2023-05-18T00:19:50.225Z,6.42
2023-05-18T00:21:52.634Z,5.93
2023-05-18T00:24:19.591Z,6.36
2023-05-18T00:24:50.213Z,6.36
2023-05-18T00:26:47.600Z,6.32
2023-05-18T00:29:14.014Z,6.33
2023-05-18T00:29:50.187Z,6.33
2023-05-18T00:31:40.828Z,6.24
2023-05-18T00:34:10.645Z,6.01
2023-05-18T00:34:50.216Z,6.01
2023-05-18T00:36:38.132Z,6.15
2023-05-18T00:39:06.288Z,6.11
2023-05-18T00:39:50.204Z,6.11
2023-05-18T00:41:33.126Z,6.13
2023-05-18T00:44:00.723Z,5.99
2023-05-18T00:44:50.316Z,5.99
2023-05-18T00:46:28.671Z,5.98
2023-05-18T00:48:57.418Z,6.01
2023-05-18T00:49:50.203Z,6.01
2023-05-18T00:51:24.792Z,5.71
2023-05-18T00:53:52.617Z,5.69
2023-05-18T00:54:50.220Z,5.69
2023-05-18T00:56:23.690Z,5.46
2023-05-18T00:58:55.808Z,5.38
2023-05-18T00:59:50.204Z,5.38
2023-05-18T01:01:29.511Z,5.74
2023-05-18T01:03:57.922Z,5.72
2023-05-18T01:04:50.223Z,5.72
2023-05-18T01:06:26.982Z,5.38
2023-05-18T01:08:54.718Z,5.67
2023-05-18T01:09:50.235Z,5.67
2023-05-18T01:11:24.292Z,5.68
2023-05-18T01:14:18.163Z,5.39
2023-05-18T01:14:50.202Z,5.39
2023-05-18T01:17:33.491Z,5.68
2023-05-18T01:19:50.212Z,5.68
2023-05-18T01:20:24.583Z,5.63
2023-05-18T01:23:12.312Z,5.62
2023-05-18T01:24:50.224Z,5.62
2023-05-18T01:25:54.097Z,5.58
2023-05-18T01:28:27.441Z,5.53
2023-05-18T01:29:50.203Z,5.53
2023-05-18T01:30:54.828Z,5.47
2023-05-18T01:33:21.334Z,5.50
2023-05-18T01:34:50.280Z,5.50
2023-05-18T01:35:50.485Z,5.06
2023-05-18T01:38:24.196Z,5.48
2023-05-18T01:39:50.207Z,5.48
2023-05-18T01:40:59.738Z,5.50
2023-05-18T01:43:33.192Z,5.09
2023-05-18T01:44:50.336Z,5.09
2023-05-18T01:46:08.716Z,5.54
2023-05-18T01:48:38.968Z,5.09
2023-05-18T01:49:50.190Z,5.09
2023-05-18T01:51:06.549Z,5.37
2023-05-18T01:53:39.177Z,4.32
2023-05-18T01:54:50.215Z,4.32
2023-05-18T01:56:07.972Z,5.49
2023-05-18T01:58:37.901Z,5.44
2023-05-18T01:59:50.201Z,5.44
2023-05-18T02:01:04.877Z,5.33
2023-05-18T02:03:33.051Z,5.30
2023-05-18T02:04:50.205Z,5.30
2023-05-18T02:05:59.650Z,5.34
2023-05-18T02:08:26.460Z,5.39
2023-05-18T02:09:50.210Z,5.39
2023-05-18T02:10:54.988Z,5.35
2023-05-18T02:13:21.490Z,5.26
2023-05-18T02:14:50.205Z,5.26
2023-05-18T02:15:48.002Z,4.92
2023-05-18T02:18:14.435Z,5.12
2023-05-18T02:19:50.249Z,5.12
2023-05-18T02:20:41.069Z,5.10
2023-05-18T02:23:07.503Z,4.73
2023-05-18T02:24:50.197Z,4.73
2023-05-18T02:25:33.895Z,4.93
2023-05-18T02:28:00.394Z,4.85
2023-05-18T02:29:50.221Z,4.85
2023-05-18T02:30:26.795Z,4.99
2023-05-18T02:32:57.402Z,4.93
2023-05-18T02:34:50.260Z,4.93
2023-05-18T02:35:23.933Z,4.90
2023-05-18T02:37:50.399Z,4.76
2023-05-18T02:39:50.234Z,4.76
2023-05-18T02:40:17.024Z,4.69
2023-05-18T02:42:43.518Z,4.61
2023-05-18T02:44:50.303Z,4.61
2023-05-18T02:45:10.370Z,4.79
2023-05-18T02:47:36.901Z,4.75
2023-05-18T02:49:50.226Z,4.75
2023-05-18T02:50:03.672Z,4.74
2023-05-18T02:52:30.169Z,3.55
2023-05-18T02:54:50.223Z,3.55
2023-05-18T02:54:56.719Z,4.64
2023-05-18T02:57:23.155Z,4.40
2023-05-18T02:59:49.682Z,4.59
2023-05-18T02:59:50.214Z,4.59
2023-05-18T03:02:16.642Z,3.39
2023-05-18T03:04:43.574Z,4.52
2023-05-18T03:04:50.201Z,4.52
2023-05-18T03:07:10.507Z,4.47
2023-05-18T03:09:37.958Z,4.22
2023-05-18T03:09:50.225Z,4.22
2023-05-18T03:12:04.733Z,4.25
2023-05-18T03:14:31.249Z,4.34
2023-05-18T03:14:50.201Z,4.34
2023-05-18T03:16:58.069Z,4.12
2023-05-18T03:19:24.849Z,3.67
2023-05-18T03:19:50.266Z,3.67
2023-05-18T03:21:51.404Z,4.25
2023-05-18T03:24:18.057Z,4.17
2023-05-18T03:24:50.193Z,4.17
2023-05-18T03:26:44.658Z,3.70
2023-05-18T03:29:13.850Z,3.54
2023-05-18T03:29:50.254Z,3.54
2023-05-18T03:31:40.878Z,2.83
2023-05-18T03:34:07.500Z,4.08
2023-05-18T03:34:50.351Z,4.08
2023-05-18T03:36:35.598Z,3.87
2023-05-18T03:39:02.316Z,4.09
2023-05-18T03:39:50.216Z,4.09
2023-05-18T03:41:29.962Z,4.10
2023-05-18T03:43:56.645Z,4.09
2023-05-18T03:44:50.281Z,4.09
2023-05-18T03:46:23.272Z,4.08
2023-05-18T03:48:50.035Z,3.64
2023-05-18T03:49:50.215Z,3.64
2023-05-18T03:51:16.440Z,4.20
2023-05-18T03:53:43.006Z,3.35
2023-05-18T03:54:50.242Z,3.35
2023-05-18T03:56:09.557Z,4.31
2023-05-18T03:58:36.180Z,4.30
2023-05-18T03:59:50.216Z,4.30
2023-05-18T04:01:02.670Z,4.08
2023-05-18T04:03:30.481Z,4.51
2023-05-18T04:04:50.260Z,4.51
2023-05-18T04:05:57.137Z,4.18
2023-05-18T04:08:25.642Z,4.79
2023-05-18T04:09:50.234Z,4.79
2023-05-18T04:10:52.415Z,4.47
2023-05-18T04:13:19.056Z,5.45
2023-05-18T04:14:50.263Z,5.45
2023-05-18T04:15:45.879Z,5.68
2023-05-18T04:18:13.709Z,6.03
2023-05-18T04:19:50.327Z,6.03
2023-05-18T04:20:42.272Z,6.15
2023-05-18T04:23:10.144Z,7.02
2023-05-18T04:24:50.217Z,7.02
2023-05-18T04:25:36.647Z,7.53
2023-05-18T04:28:03.152Z,7.68
2023-05-18T04:29:50.257Z,7.68
2023-05-18T04:30:31.116Z,8.01
2023-05-18T04:33:00.527Z,8.54
2023-05-18T04:34:50.327Z,8.54
2023-05-18T04:35:27.486Z,8.18
2023-05-18T04:37:54.688Z,8.94
2023-05-18T04:39:50.215Z,8.94
2023-05-18T04:40:21.176Z,9.50
2023-05-18T04:42:48.438Z,9.71
2023-05-18T04:44:50.290Z,9.71
2023-05-18T04:45:19.520Z,8.94
2023-05-18T04:47:47.891Z,9.79
2023-05-18T04:49:50.204Z,9.79
2023-05-18T04:50:18.162Z,10.90
2023-05-18T04:52:48.857Z,11.21
2023-05-18T04:54:50.226Z,11.21
2023-05-18T04:55:26.048Z,11.67
2023-05-18T04:57:56.984Z,11.33
2023-05-18T04:59:50.241Z,11.33
2023-05-18T05:00:24.888Z,12.41
2023-05-18T05:02:51.682Z,12.80
2023-05-18T05:04:50.230Z,12.80
2023-05-18T05:05:18.964Z,12.96
2023-05-18T05:07:45.508Z,13.24
2023-05-18T05:09:50.218Z,13.24
2023-05-18T05:10:11.951Z,13.16
2023-05-18T05:12:38.624Z,13.35
2023-05-18T05:14:50.227Z,13.35
2023-05-18T05:15:05.593Z,13.06
2023-05-18T05:17:32.065Z,13.78
2023-05-18T05:19:50.255Z,13.78
2023-05-18T05:19:58.557Z,13.75
2023-05-18T05:22:25.085Z,14.56
2023-05-18T05:24:50.218Z,14.56
2023-05-18T05:24:51.594Z,14.56
2023-05-18T05:27:18.844Z,14.58
2023-05-18T05:29:50.228Z,14.68
2023-05-18T05:29:50.370Z,14.68
2023-05-18T05:32:16.625Z,14.72
2023-05-18T05:34:47.916Z,14.90
2023-05-18T05:34:50.243Z,14.90
2023-05-18T05:37:14.360Z,14.25
2023-05-18T05:39:40.844Z,14.56
2023-05-18T05:39:50.221Z,14.56
2023-05-18T05:42:08.511Z,13.55
2023-05-18T05:44:35.585Z,14.91
2023-05-18T05:44:50.286Z,14.91
2023-05-18T05:47:02.254Z,14.99
2023-05-18T05:49:28.836Z,14.00
2023-05-18T05:49:50.248Z,14.00
2023-05-18T05:51:55.382Z,14.54
2023-05-18T05:54:22.158Z,15.10
2023-05-18T05:54:50.218Z,15.10
2023-05-18T05:56:48.638Z,14.88
2023-05-18T05:59:15.624Z,15.48
2023-05-18T05:59:50.227Z,15.48
2023-05-18T06:01:42.115Z,14.67
2023-05-18T06:04:10.928Z,13.87
2023-05-18T06:04:50.230Z,13.87
2023-05-18T06:06:38.511Z,14.47
2023-05-18T06:09:05.167Z,14.16
2023-05-18T06:09:50.199Z,14.16
2023-05-18T06:11:31.689Z,13.53
2023-05-18T06:13:58.267Z,13.74
2023-05-18T06:14:50.239Z,13.74
2023-05-18T06:16:25.375Z,13.82
2023-05-18T06:18:51.858Z,13.25
2023-05-18T06:19:50.221Z,13.25
2023-05-18T06:21:18.346Z,12.72
2023-05-18T06:23:44.912Z,12.34
2023-05-18T06:24:50.204Z,12.34
2023-05-18T06:26:11.404Z,12.44
2023-05-18T06:28:37.821Z,11.74
2023-05-18T06:29:50.213Z,11.74
2023-05-18T06:31:04.332Z,11.32
2023-05-18T06:33:31.222Z,10.86
2023-05-18T06:34:51.262Z,10.86
2023-05-18T06:35:57.859Z,10.82
2023-05-18T06:38:24.312Z,11.60
2023-05-18T06:39:50.338Z,11.60
2023-05-18T06:40:50.749Z,11.23
2023-05-18T06:43:17.162Z,10.97
2023-05-18T06:44:50.250Z,10.97
2023-05-18T06:45:43.631Z,11.18
2023-05-18T06:48:10.090Z,10.80
2023-05-18T06:49:50.214Z,10.80
2023-05-18T06:50:36.570Z,10.98
2023-05-18T06:53:03.112Z,11.32
2023-05-18T06:54:50.234Z,11.32
2023-05-18T06:55:29.758Z,11.26
2023-05-18T06:57:58.276Z,11.27
2023-05-18T06:59:50.288Z,11.27
2023-05-18T07:00:25.001Z,11.43
2023-05-18T07:02:51.592Z,11.29
2023-05-18T07:04:50.248Z,11.29
2023-05-18T07:05:18.304Z,11.72
2023-05-18T07:07:44.871Z,11.91
2023-05-18T07:09:50.230Z,11.91
2023-05-18T07:10:11.662Z,11.57
2023-05-18T07:12:38.061Z,11.60
2023-05-18T07:14:50.251Z,11.60
2023-05-18T07:15:05.008Z,11.83
2023-05-18T07:17:31.546Z,11.44
2023-05-18T07:19:50.254Z,11.44
2023-05-18T07:19:58.053Z,12.13
2023-05-18T07:22:24.522Z,12.24
2023-05-18T07:24:51.072Z,11.82
2023-05-18T07:24:51.208Z,11.82
2023-05-18T07:27:17.500Z,12.10
2023-05-18T07:29:44.081Z,11.90
2023-05-18T07:29:50.239Z,11.90
2023-05-18T07:32:10.504Z,11.62
2023-05-18T07:34:36.859Z,12.59
2023-05-18T07:34:50.285Z,12.59
2023-05-18T07:37:03.432Z,12.64
2023-05-18T07:39:29.935Z,12.42
2023-05-18T07:39:50.297Z,12.42
2023-05-18T07:41:56.788Z,11.63
2023-05-18T07:44:23.573Z,12.11
2023-05-18T07:44:50.264Z,12.11
2023-05-18T07:46:51.415Z,12.08
2023-05-18T07:49:17.906Z,12.24
2023-05-18T07:49:50.227Z,12.24
2023-05-18T07:51:44.491Z,12.27
2023-05-18T07:54:11.022Z,12.75
2023-05-18T07:54:50.243Z,12.75
2023-05-18T07:56:37.462Z,12.36
2023-05-18T07:59:03.933Z,11.62
2023-05-18T07:59:50.287Z,11.62
2023-05-18T08:01:32.060Z,12.85
2023-05-18T08:03:58.788Z,13.07
2023-05-18T08:04:50.216Z,13.07
2023-05-18T08:06:25.365Z,12.53
2023-05-18T08:08:51.935Z,11.77
2023-05-18T08:09:50.227Z,11.77
2023-05-18T08:11:18.551Z,12.95
2023-05-18T08:13:44.982Z,12.47
2023-05-18T08:14:50.283Z,12.47
2023-05-18T08:16:12.536Z,12.53
2023-05-18T08:18:40.278Z,12.64
2023-05-18T08:19:50.237Z,12.64
2023-05-18T08:21:10.183Z,12.77
2023-05-18T08:23:36.969Z,13.25
2023-05-18T08:24:50.245Z,13.25
2023-05-18T08:26:03.666Z,12.95
2023-05-18T08:28:31.136Z,12.94
2023-05-18T08:29:50.228Z,12.94
2023-05-18T08:30:57.770Z,13.24
2023-05-18T08:33:24.314Z,13.50
2023-05-18T08:34:50.333Z,13.50
2023-05-18T08:35:50.827Z,13.37
2023-05-18T08:38:17.378Z,13.43
2023-05-18T08:39:50.325Z,13.43
2023-05-18T08:41:07.522Z,13.73
2023-05-18T08:43:38.146Z,13.57
2023-05-18T08:44:50.249Z,13.57
2023-05-18T08:46:13.871Z,13.53
2023-05-18T08:48:44.218Z,13.72
2023-05-18T08:49:50.230Z,13.72
2023-05-18T08:51:11.532Z,13.84
2023-05-18T08:53:39.100Z,14.10
2023-05-18T08:54:50.257Z,14.10
2023-05-18T08:56:05.781Z,14.42
2023-05-18T08:58:37.791Z,14.28
2023-05-18T08:59:50.231Z,14.28
2023-05-18T09:01:04.622Z,14.16
2023-05-18T09:03:31.828Z,14.17
2023-05-18T09:04:50.279Z,14.17
2023-05-18T09:05:59.475Z,14.39
2023-05-18T09:08:26.701Z,14.49
2023-05-18T09:09:50.245Z,14.49
2023-05-18T09:10:57.667Z,13.08
2023-05-18T09:13:24.175Z,14.30
2023-05-18T09:14:50.272Z,14.30
2023-05-18T09:15:51.406Z,13.80
2023-05-18T09:18:17.880Z,14.62
2023-05-18T09:19:50.244Z,14.62
2023-05-18T09:20:45.402Z,14.43
2023-05-18T09:23:12.615Z,14.07
2023-05-18T09:24:50.246Z,14.07
2023-05-18T09:25:44.657Z,14.09
2023-05-18T09:28:13.418Z,14.70
2023-05-18T09:29:50.257Z,14.70
2023-05-18T09:30:41.863Z,15.12
2023-05-18T09:33:19.279Z,14.76
2023-05-18T09:34:50.319Z,14.76
2023-05-18T09:35:48.737Z,14.14
2023-05-18T09:38:22.200Z,14.39
2023-05-18T09:39:50.228Z,14.39
2023-05-18T09:40:50.072Z,14.36
2023-05-18T09:43:18.850Z,14.68
2023-05-18T09:44:50.256Z,14.68
2023-05-18T09:45:47.869Z,14.65
2023-05-18T09:48:17.260Z,14.60
2023-05-18T09:49:50.210Z,14.60
2023-05-18T09:50:45.100Z,14.31
2023-05-18T09:53:14.058Z,14.34
2023-05-18T09:54:50.227Z,14.34
2023-05-18T09:55:48.506Z,14.52
2023-05-18T09:58:15.788Z,14.63
2023-05-18T09:59:50.240Z,14.63
2023-05-18T10:00:45.107Z,14.90
2023-05-18T10:03:23.398Z,15.41
2023-05-18T10:04:50.370Z,15.41
2023-05-18T10:05:50.464Z,14.92
2023-05-18T10:08:17.741Z,14.51
2023-05-18T10:09:50.248Z,14.51
2023-05-18T10:10:46.213Z,14.69
2023-05-18T10:13:19.513Z,14.76
2023-05-18T10:14:50.269Z,14.76
2023-05-18T10:15:47.811Z,15.22
2023-05-18T10:18:20.326Z,15.22
2023-05-18T10:19:50.209Z,15.22
2023-05-18T10:20:48.294Z,15.78
2023-05-18T10:23:15.580Z,15.77
2023-05-18T10:24:50.235Z,15.77
2023-05-18T10:25:45.436Z,15.44
2023-05-18T10:28:12.343Z,15.94
2023-05-18T10:29:50.239Z,15.94
2023-05-18T10:30:43.920Z,16.04
2023-05-18T10:33:20.613Z,14.87
2023-05-18T10:34:50.334Z,14.87
2023-05-18T10:35:55.433Z,15.43
2023-05-18T10:38:24.159Z,16.11
2023-05-18T10:39:50.229Z,16.11
2023-05-18T10:40:53.708Z,16.00
2023-05-18T10:43:24.180Z,15.24
2023-05-18T10:44:50.320Z,15.24
2023-05-18T10:45:55.800Z,15.55
2023-05-18T10:48:23.925Z,16.18
2023-05-18T10:49:50.275Z,16.18
2023-05-18T10:50:52.869Z,16.37
2023-05-18T10:53:24.186Z,16.51
2023-05-18T10:54:50.260Z,16.51
2023-05-18T10:55:51.761Z,16.08
2023-05-18T10:58:20.211Z,16.70
2023-05-18T10:59:50.240Z,16.70
2023-05-18T11:00:51.270Z,15.84
2023-05-18T11:03:19.826Z,16.08
2023-05-18T11:04:51.948Z,16.08
2023-05-18T11:06:06.861Z,15.91
2023-05-18T11:08:33.791Z,15.66
2023-05-18T11:09:50.268Z,15.66
2023-05-18T11:11:05.080Z,15.81
2023-05-18T11:13:32.931Z,15.44
2023-05-18T11:14:50.258Z,15.44
2023-05-18T11:15:59.590Z,15.56
2023-05-18T11:18:44.372Z,16.39
2023-05-18T11:19:50.254Z,16.39
2023-05-18T11:21:21.894Z,16.75
2023-05-18T11:24:20.651Z,16.68
2023-05-18T11:24:50.260Z,16.68
2023-05-18T11:26:54.840Z,16.86
2023-05-18T11:29:23.921Z,16.69
2023-05-18T11:29:57.801Z,16.69
2023-05-18T11:31:55.189Z,16.61
2023-05-18T11:34:45.287Z,16.25
2023-05-18T11:34:50.356Z,16.25
2023-05-18T11:37:13.954Z,15.89
2023-05-18T11:39:51.806Z,15.89
2023-05-18T11:39:59.674Z,15.89
2023-05-18T11:42:23.109Z,16.05
2023-05-18T11:44:55.723Z,16.40
2023-05-18T11:44:56.093Z,16.40
2023-05-18T11:47:23.675Z,16.63
2023-05-18T11:49:53.140Z,16.35
2023-05-18T11:49:53.251Z,16.35
2023-05-18T11:52:24.620Z,16.53
2023-05-18T11:54:59.132Z,17.14
2023-05-18T11:54:59.334Z,17.14
2023-05-18T11:57:38.127Z,17.85
2023-05-18T11:59:50.253Z,17.85
2023-05-18T12:00:12.131Z,18.21
2023-05-18T12:02:42.496Z,18.16
2023-05-18T12:04:50.251Z,18.16
2023-05-18T12:05:10.046Z,16.93
2023-05-18T12:07:37.232Z,16.80
2023-05-18T12:09:50.317Z,16.80
2023-05-18T12:10:06.821Z,16.35
2023-05-18T12:12:34.101Z,16.57
2023-05-18T12:14:50.238Z,16.57
2023-05-18T12:15:02.649Z,15.91
2023-05-18T12:17:40.404Z,16.43
2023-05-18T12:19:50.279Z,16.43
2023-05-18T12:20:15.134Z,17.02
2023-05-18T12:22:43.757Z,17.21
2023-05-18T12:24:50.243Z,17.21
2023-05-18T12:25:11.264Z,17.19
2023-05-18T12:27:40.268Z,16.38
2023-05-18T12:29:50.267Z,16.38
2023-05-18T12:30:09.452Z,16.62
2023-05-18T12:32:35.986Z,16.55
2023-05-18T12:34:50.411Z,16.55
2023-05-18T12:35:03.510Z,16.77
2023-05-18T12:37:37.850Z,17.08
2023-05-18T12:39:50.244Z,17.08
2023-05-18T12:40:14.714Z,17.23
2023-05-18T12:43:00.427Z,16.89
2023-05-18T12:44:50.263Z,16.89
2023-05-18T12:45:29.073Z,17.12
2023-05-18T12:47:56.210Z,16.77
2023-05-18T12:49:50.278Z,16.77
2023-05-18T12:50:24.996Z,16.66
2023-05-18T12:52:51.508Z,17.34
2023-05-18T12:54:50.309Z,17.34
2023-05-18T12:55:22.149Z,16.24
2023-05-18T12:58:06.228Z,17.29
2023-05-18T12:59:50.267Z,17.29
2023-05-18T13:00:37.563Z,17.46
2023-05-18T13:03:07.531Z,17.60
2023-05-18T13:04:50.238Z,17.60
2023-05-18T13:05:34.304Z,17.84
2023-05-18T13:08:01.051Z,17.58
2023-05-18T13:09:50.310Z,17.58
2023-05-18T13:10:32.261Z,17.57
2023-05-18T13:13:03.420Z,17.48
2023-05-18T13:14:50.265Z,17.48
2023-05-18T13:15:35.707Z,16.93
2023-05-18T13:18:04.912Z,16.93
2023-05-18T13:19:50.273Z,16.93
2023-05-18T13:20:42.553Z,17.34
2023-05-18T13:23:10.763Z,17.25
2023-05-18T13:24:50.292Z,17.25
2023-05-18T13:25:38.156Z,17.71
2023-05-18T13:28:05.523Z,17.57
2023-05-18T13:29:50.401Z,17.57
2023-05-18T13:30:32.709Z,17.67
2023-05-18T13:32:59.891Z,17.69
2023-05-18T13:34:50.279Z,17.69
2023-05-18T13:35:31.998Z,17.79
2023-05-18T13:37:58.641Z,17.26
2023-05-18T13:39:50.243Z,17.26
2023-05-18T13:40:25.592Z,17.23
2023-05-18T13:42:52.473Z,17.28
2023-05-18T13:44:50.399Z,17.28
2023-05-18T13:45:21.522Z,17.48
2023-05-18T13:47:52.069Z,17.97
2023-05-18T13:49:50.273Z,17.97
2023-05-18T13:50:19.593Z,17.82
2023-05-18T13:52:47.597Z,16.63
2023-05-18T13:54:50.260Z,16.63
2023-05-18T13:55:14.251Z,17.23
2023-05-18T13:57:41.042Z,17.56
2023-05-18T13:59:50.254Z,17.56
2023-05-18T14:00:13.216Z,17.72
2023-05-18T14:02:44.207Z,17.02
2023-05-18T14:04:50.274Z,17.02
2023-05-18T14:05:13.606Z,17.41
2023-05-18T14:07:41.951Z,17.90
2023-05-18T14:09:50.290Z,17.90
2023-05-18T14:10:10.222Z,17.72
2023-05-18T14:12:37.116Z,17.45
2023-05-18T14:14:50.292Z,17.45
2023-05-18T14:15:04.699Z,17.27
2023-05-18T14:17:31.417Z,17.21
2023-05-18T14:19:50.362Z,17.21
2023-05-18T14:19:58.626Z,17.29
2023-05-18T14:22:26.350Z,17.05
2023-05-18T14:24:50.236Z,17.05
2023-05-18T14:24:53.894Z,17.25
2023-05-18T14:27:20.499Z,17.24
2023-05-18T14:29:47.533Z,17.28
2023-05-18T14:29:50.270Z,17.28
2023-05-18T14:32:14.189Z,16.90
2023-05-18T14:34:40.668Z,17.28
2023-05-18T14:34:50.315Z,17.28
2023-05-18T14:37:07.073Z,17.40
2023-05-18T14:39:33.631Z,17.52
2023-05-18T14:39:50.282Z,17.52
2023-05-18T14:42:00.108Z,17.64
2023-05-18T14:44:26.646Z,17.69
2023-05-18T14:44:50.387Z,17.69
2023-05-18T14:46:53.109Z,17.79
2023-05-18T14:49:19.595Z,17.82
2023-05-18T14:49:50.275Z,17.82
2023-05-18T14:51:46.119Z,17.65
2023-05-18T14:54:14.008Z,17.77
2023-05-18T14:54:50.275Z,17.77
2023-05-18T14:56:40.562Z,17.23
2023-05-18T14:59:07.218Z,17.13
2023-05-18T14:59:50.324Z,17.13
2023-05-18T15:01:33.661Z,17.69
2023-05-18T15:04:00.220Z,17.84
2023-05-18T15:04:50.280Z,17.84
2023-05-18T15:06:26.962Z,17.90
2023-05-18T15:08:53.389Z,17.62
2023-05-18T15:09:50.263Z,17.62
2023-05-18T15:11:20.719Z,17.58
2023-05-18T15:13:47.778Z,15.98
2023-05-18T15:14:50.286Z,15.98
2023-05-18T15:16:14.990Z,17.23
2023-05-18T15:18:41.881Z,17.34
2023-05-18T15:19:50.312Z,17.34
2023-05-18T15:21:08.384Z,17.08
2023-05-18T15:23:34.806Z,16.80
2023-05-18T15:24:50.289Z,16.80
2023-05-18T15:26:01.236Z,17.32
2023-05-18T15:28:27.659Z,17.53
2023-05-18T15:29:50.301Z,17.53
2023-05-18T15:30:54.684Z,17.51
2023-05-18T15:33:21.695Z,16.87
2023-05-18T15:34:50.302Z,16.87
2023-05-18T15:35:48.311Z,17.12
2023-05-18T15:38:14.792Z,17.43
2023-05-18T15:39:50.361Z,17.43
2023-05-18T15:40:43.539Z,17.35
2023-05-18T15:43:10.162Z,17.12
2023-05-18T15:44:50.292Z,17.12
2023-05-18T15:45:36.961Z,17.30
2023-05-18T15:48:03.693Z,17.02
2023-05-18T15:49:50.254Z,17.02
2023-05-18T15:50:30.397Z,17.23
2023-05-18T15:52:57.033Z,17.51
2023-05-18T15:54:50.257Z,17.51
2023-05-18T15:55:23.486Z,17.30
2023-05-18T15:57:49.980Z,16.98
2023-05-18T15:59:50.269Z,16.98
2023-05-18T16:00:16.930Z,16.33
2023-05-18T16:02:43.538Z,17.22
2023-05-18T16:04:50.274Z,17.22
2023-05-18T16:05:10.357Z,17.20
2023-05-18T16:07:37.415Z,17.07
2023-05-18T16:09:50.294Z,17.07
2023-05-18T16:10:04.064Z,17.00
2023-05-18T16:12:30.433Z,16.84
2023-05-18T16:14:50.316Z,16.84
2023-05-18T16:14:57.070Z,16.97
2023-05-18T16:17:23.516Z,16.71
2023-05-18T16:19:50.050Z,16.86
2023-05-18T16:19:50.270Z,16.86
2023-05-18T16:22:16.616Z,17.22
2023-05-18T16:24:44.609Z,16.41
2023-05-18T16:24:50.265Z,16.41
2023-05-18T16:27:11.144Z,16.88
2023-05-18T16:29:37.658Z,17.06
2023-05-18T16:29:50.277Z,17.06
2023-05-18T16:32:04.393Z,16.99
2023-05-18T16:34:30.831Z,17.01
2023-05-18T16:34:50.338Z,17.01
2023-05-18T16:36:57.271Z,17.04
2023-05-18T16:39:25.359Z,17.11
2023-05-18T16:39:50.294Z,17.11
2023-05-18T16:41:53.528Z,16.72
2023-05-18T16:44:19.927Z,16.88
2023-05-18T16:44:50.283Z,16.88
2023-05-18T16:46:46.458Z,16.94
2023-05-18T16:49:12.925Z,16.66
2023-05-18T16:49:50.264Z,16.66
2023-05-18T16:51:39.858Z,16.60
2023-05-18T16:54:06.927Z,16.69
2023-05-18T16:54:50.291Z,16.69
2023-05-18T16:56:34.131Z,14.97
2023-05-18T16:59:01.413Z,16.42
2023-05-18T16:59:50.311Z,16.42
2023-05-18T17:01:29.239Z,15.55
2023-05-18T17:03:56.239Z,16.26
2023-05-18T17:04:50.268Z,16.26
2023-05-18T17:06:22.950Z,15.98
2023-05-18T17:08:53.006Z,15.77
2023-05-18T17:09:50.300Z,15.77
2023-05-18T17:11:19.402Z,16.06
2023-05-18T17:13:45.970Z,16.01
2023-05-18T17:14:52.144Z,16.01
2023-05-18T17:16:14.240Z,15.92
2023-05-18T17:18:41.272Z,15.92
2023-05-18T17:19:50.293Z,15.92
2023-05-18T17:21:07.701Z,15.89
2023-05-18T17:23:34.156Z,15.75
2023-05-18T17:24:50.284Z,15.75
2023-05-18T17:26:05.936Z,15.45
2023-05-18T17:28:33.132Z,15.75
2023-05-18T17:29:50.308Z,49.55
2023-05-18T17:30:59.592Z,14.34
2023-05-18T17:33:26.308Z,15.61
2023-05-18T17:34:50.350Z,15.61
2023-05-18T17:35:52.893Z,15.77
2023-05-18T17:38:21.547Z,15.83
2023-05-18T17:39:50.279Z,15.83
2023-05-18T17:40:48.177Z,15.79
2023-05-18T17:43:14.566Z,15.64
2023-05-18T17:44:50.262Z,15.64
2023-05-18T17:45:40.999Z,15.53
2023-05-18T17:48:07.531Z,15.35
2023-05-18T17:49:50.288Z,15.35
2023-05-18T17:50:37.001Z,15.51
2023-05-18T17:53:04.698Z,15.40
2023-05-18T17:54:50.288Z,15.40
2023-05-18T17:55:31.338Z,15.32
2023-05-18T17:57:59.607Z,15.22
2023-05-18T17:59:50.313Z,15.22
2023-05-18T18:00:26.127Z,15.23
2023-05-18T18:02:52.583Z,14.87
2023-05-18T18:04:51.326Z,14.87
2023-05-18T18:05:19.138Z,15.11
2023-05-18T18:07:45.514Z,15.00
2023-05-18T18:09:50.278Z,15.00
2023-05-18T18:10:11.965Z,14.56
2023-05-18T18:12:38.452Z,14.91
2023-05-18T18:14:50.308Z,14.91
2023-05-18T18:15:05.346Z,14.90
2023-05-18T18:17:31.837Z,14.82
2023-05-18T18:19:50.288Z,14.82
2023-05-18T18:19:58.596Z,14.38
2023-05-18T18:22:25.005Z,14.51
2023-05-18T18:24:51.421Z,13.99
2023-05-18T18:24:51.594Z,13.99
2023-05-18T18:27:19.855Z,13.86
2023-05-18T18:29:46.360Z,13.88
2023-05-18T18:29:50.295Z,13.88
2023-05-18T18:32:12.899Z,14.39
2023-05-18T18:34:39.339Z,13.93
2023-05-18T18:34:50.409Z,13.93
2023-05-18T18:37:05.902Z,14.30
2023-05-18T18:39:32.409Z,13.87
2023-05-18T18:39:50.300Z,13.87
2023-05-18T18:41:58.825Z,14.19
2023-05-18T18:44:25.329Z,14.08
2023-05-18T18:44:50.311Z,14.08
2023-05-18T18:46:51.847Z,13.98
2023-05-18T18:49:18.614Z,13.67
2023-05-18T18:49:50.281Z,13.67
2023-05-18T18:51:46.576Z,13.71
2023-05-18T18:54:13.073Z,13.51
2023-05-18T18:54:50.300Z,13.51
2023-05-18T18:56:39.543Z,13.63
2023-05-18T18:59:06.161Z,13.44
2023-05-18T18:59:50.326Z,13.44
2023-05-18T19:01:32.707Z,13.50
2023-05-18T19:03:59.305Z,13.07
2023-05-18T19:04:50.339Z,13.07
2023-05-18T19:06:27.100Z,12.46
2023-05-18T19:08:53.517Z,13.36
2023-05-18T19:09:50.289Z,13.36
2023-05-18T19:11:21.955Z,12.03
2023-05-18T19:13:48.669Z,13.12
2023-05-18T19:14:50.327Z,13.12
2023-05-18T19:16:17.360Z,12.95
2023-05-18T19:18:44.769Z,11.90
2023-05-18T19:19:50.325Z,11.90
2023-05-18T19:21:11.551Z,12.98
2023-05-18T19:23:38.096Z,12.85
2023-05-18T19:24:50.292Z,12.85
2023-05-18T19:26:04.696Z,12.82
2023-05-18T19:28:31.324Z,12.76
2023-05-18T19:29:50.326Z,12.76
2023-05-18T19:30:57.799Z,12.75
2023-05-18T19:33:24.296Z,12.52
2023-05-18T19:34:50.425Z,12.52
2023-05-18T19:35:52.852Z,12.42
2023-05-18T19:38:19.441Z,12.03
2023-05-18T19:39:50.341Z,12.03
2023-05-18T19:40:45.989Z,12.44
2023-05-18T19:43:12.483Z,12.22
2023-05-18T19:44:50.351Z,12.22
2023-05-18T19:45:39.029Z,12.38
2023-05-18T19:48:05.941Z,12.27
2023-05-18T19:49:50.333Z,12.27
2023-05-18T19:50:32.511Z,12.22
2023-05-18T19:52:58.961Z,12.20
2023-05-18T19:54:50.346Z,12.20
2023-05-18T19:55:25.799Z,12.26
2023-05-18T19:57:52.145Z,11.46
2023-05-18T19:59:50.337Z,11.46
2023-05-18T20:00:18.653Z,12.16
2023-05-18T20:02:45.260Z,12.13
2023-05-18T20:04:50.313Z,12.13
2023-05-18T20:05:12.733Z,12.13
2023-05-18T20:07:39.680Z,12.12
2023-05-18T20:09:50.305Z,12.12
2023-05-18T20:10:06.644Z,12.06
2023-05-18T20:12:33.101Z,11.54
2023-05-18T20:14:50.298Z,11.54
2023-05-18T20:14:59.577Z,11.23
2023-05-18T20:17:26.142Z,11.29
2023-05-18T20:19:50.383Z,11.29
2023-05-18T20:19:53.416Z,11.21
2023-05-18T20:22:22.135Z,11.47
2023-05-18T20:24:48.913Z,10.48
2023-05-18T20:24:50.308Z,10.48
2023-05-18T20:27:15.825Z,11.86
2023-05-18T20:29:42.521Z,11.64
2023-05-18T20:29:50.470Z,11.64
2023-05-18T20:32:09.963Z,11.64
2023-05-18T20:34:36.665Z,11.60
2023-05-18T20:34:50.302Z,11.60
2023-05-18T20:37:03.742Z,11.62
2023-05-18T20:39:30.480Z,11.56
2023-05-18T20:39:50.309Z,11.56
2023-05-18T20:41:58.617Z,11.22
2023-05-18T20:44:27.797Z,11.43
2023-05-18T20:44:50.289Z,11.43
2023-05-18T20:46:54.481Z,11.40
2023-05-18T20:49:26.926Z,11.39
2023-05-18T20:49:50.302Z,11.39
2023-05-18T20:51:53.433Z,10.96
2023-05-18T20:54:21.338Z,10.80
2023-05-18T20:54:50.290Z,10.80
2023-05-18T20:56:48.184Z,11.15
2023-05-18T20:59:16.156Z,11.27
2023-05-18T20:59:50.296Z,11.27
2023-05-18T21:01:42.933Z,10.80
2023-05-18T21:04:12.008Z,10.81
2023-05-18T21:04:50.271Z,10.81
2023-05-18T21:06:40.621Z,10.79
2023-05-18T21:09:07.939Z,11.03
2023-05-18T21:09:50.278Z,11.03
2023-05-18T21:11:34.621Z,10.31
2023-05-18T21:14:01.190Z,10.83
2023-05-18T21:14:50.303Z,10.83
2023-05-18T21:16:27.836Z,10.04
2023-05-18T21:18:54.358Z,10.65
2023-05-18T21:19:50.322Z,10.65
2023-05-18T21:21:20.924Z,10.65
2023-05-18T21:23:48.068Z,10.55
2023-05-18T21:24:50.300Z,10.55
2023-05-18T21:26:14.858Z,10.41
2023-05-18T21:28:43.396Z,10.50
2023-05-18T21:29:50.322Z,10.50